createdAt,value
2023-04-15T00:02:19.560Z,5.09
2023-04-15T00:04:47.871Z,5.14
2023-04-15T00:07:16.238Z,5.17
2023-04-15T00:09:44.676Z,5.19
2023-04-15T00:12:13.085Z,5.22
2023-04-15T00:14:40.905Z,5.25
2023-04-15T00:17:10.060Z,5.28
2023-04-15T00:19:38.294Z,5.32
2023-04-15T00:22:06.211Z,5.34
2023-04-15T00:24:33.971Z,5.36
2023-04-15T00:27:01.768Z,5.39
2023-04-15T00:29:29.699Z,5.42
2023-04-15T00:31:57.964Z,5.44
2023-04-15T00:34:27.929Z,5.46
2023-04-15T00:36:55.749Z,5.51
2023-04-15T00:39:23.690Z,5.52
2023-04-15T00:41:51.461Z,5.54
2023-04-15T00:44:20.019Z,5.55
2023-04-15T00:46:50.335Z,5.55
2023-04-15T00:49:19.289Z,5.56
2023-04-15T00:51:48.457Z,5.56
2023-04-15T00:54:16.368Z,5.56
2023-04-15T00:56:44.513Z,5.56
2023-04-15T00:59:12.506Z,5.55
2023-04-15T01:01:41.736Z,5.57
2023-04-15T01:04:11.054Z,5.56
2023-04-15T01:06:39.125Z,5.57
2023-04-15T01:09:08.212Z,5.58
2023-04-15T01:11:36.515Z,5.59
2023-04-15T01:14:04.772Z,5.61
2023-04-15T01:16:32.834Z,5.63
2023-04-15T01:19:01.267Z,5.64
2023-04-15T01:21:29.901Z,5.67
2023-04-15T01:23:58.491Z,5.69
2023-04-15T01:26:28.187Z,5.71
2023-04-15T01:28:56.401Z,5.74
2023-04-15T01:31:25.138Z,5.75
2023-04-15T01:33:53.000Z,5.77
2023-04-15T01:36:20.993Z,5.77
2023-04-15T01:38:49.122Z,5.78
2023-04-15T01:41:17.191Z,5.76
2023-04-15T01:43:46.986Z,5.78
2023-04-15T01:46:14.797Z,5.78
2023-04-15T01:48:42.632Z,5.78
2023-04-15T01:51:10.407Z,5.78
2023-04-15T01:53:38.315Z,5.77
2023-04-15T01:56:07.254Z,5.78
2023-04-15T01:58:35.037Z,5.77
2023-04-15T02:01:04.637Z,5.78
2023-04-15T02:03:33.608Z,5.75
2023-04-15T02:06:01.346Z,5.76
2023-04-15T02:08:29.799Z,5.73
2023-04-15T02:10:58.064Z,5.73
2023-04-15T02:13:26.387Z,5.71
2023-04-15T02:15:56.365Z,5.70
2023-04-15T02:18:25.574Z,5.68
2023-04-15T02:20:53.613Z,5.65
2023-04-15T02:23:21.321Z,5.64
2023-04-15T02:25:53.822Z,5.61
2023-04-15T02:28:22.604Z,5.60
2023-04-15T02:30:52.752Z,5.56
2023-04-15T02:33:21.032Z,5.54
2023-04-15T02:35:50.187Z,5.51
2023-04-15T02:38:18.011Z,5.49
2023-04-15T02:40:46.172Z,5.47
2023-04-15T02:43:13.967Z,5.45
2023-04-15T02:45:43.472Z,5.44
2023-04-15T02:48:11.514Z,5.42
2023-04-15T02:50:40.716Z,5.44
2023-04-15T02:53:13.408Z,5.42
2023-04-15T02:55:41.214Z,5.42
2023-04-15T02:58:08.918Z,5.41
2023-04-15T03:00:36.707Z,5.38
2023-04-15T03:03:06.142Z,5.37
2023-04-15T03:05:34.320Z,5.35
2023-04-15T03:08:04.772Z,5.34
2023-04-15T03:10:33.922Z,5.37
2023-04-15T03:13:02.865Z,5.39
2023-04-15T03:15:30.749Z,5.40
2023-04-15T03:17:58.586Z,5.42
2023-04-15T03:20:26.472Z,5.45
2023-04-15T03:22:54.399Z,5.48
2023-04-15T03:25:24.269Z,5.51
2023-04-15T03:27:53.597Z,5.54
2023-04-15T03:30:21.473Z,5.59
2023-04-15T03:32:49.313Z,5.60
2023-04-15T03:35:17.335Z,5.63
2023-04-15T03:37:45.144Z,5.67
2023-04-15T03:40:13.799Z,5.68
2023-04-15T03:42:41.631Z,5.70
2023-04-15T03:45:11.906Z,5.70
2023-04-15T03:47:39.663Z,5.71
2023-04-15T03:50:08.541Z,5.70
2023-04-15T03:52:36.508Z,5.67
2023-04-15T03:55:04.356Z,5.65
2023-04-15T03:57:32.241Z,5.64
2023-04-15T03:59:59.949Z,5.58
2023-04-15T04:02:29.169Z,5.55
2023-04-15T04:04:57.037Z,5.50
2023-04-15T04:07:25.439Z,5.46
2023-04-15T04:09:53.323Z,5.43
2023-04-15T04:12:21.064Z,5.41
2023-04-15T04:14:48.757Z,5.39
2023-04-15T04:17:16.521Z,5.38
2023-04-15T04:19:45.817Z,5.39
2023-04-15T04:22:13.566Z,5.40
2023-04-15T04:24:41.364Z,5.41
2023-04-15T04:27:09.136Z,5.43
2023-04-15T04:29:36.884Z,5.46
2023-04-15T04:32:04.724Z,5.50
2023-04-15T04:34:32.512Z,5.53
2023-04-15T04:37:01.687Z,5.58
2023-04-15T04:39:29.409Z,5.61
2023-04-15T04:41:57.508Z,5.66
2023-04-15T04:44:25.371Z,5.67
2023-04-15T04:46:53.121Z,5.71
2023-04-15T04:49:20.944Z,5.74
2023-04-15T04:51:48.892Z,5.79
2023-04-15T04:54:18.102Z,5.82
2023-04-15T04:56:46.358Z,5.85
2023-04-15T04:59:14.116Z,5.90
2023-04-15T05:01:42.077Z,5.89
2023-04-15T05:04:10.024Z,5.94
2023-04-15T05:06:37.890Z,5.93
2023-04-15T05:09:05.635Z,5.96
2023-04-15T05:11:34.721Z,6.02
2023-04-15T05:14:02.558Z,6.08
2023-04-15T05:16:30.382Z,6.15
2023-04-15T05:18:58.118Z,6.17
2023-04-15T05:21:25.918Z,6.23
2023-04-15T05:23:53.702Z,6.31
2023-04-15T05:26:22.109Z,6.36
2023-04-15T05:28:51.215Z,6.44
2023-04-15T05:31:19.016Z,6.50
2023-04-15T05:33:46.763Z,6.59
2023-04-15T05:36:14.497Z,6.68
2023-04-15T05:38:42.435Z,6.74
2023-04-15T05:41:10.273Z,6.88
2023-04-15T05:43:38.033Z,6.93
2023-04-15T05:46:08.551Z,7.01
2023-04-15T05:48:36.568Z,7.13
2023-04-15T05:51:04.430Z,7.20
2023-04-15T05:53:32.119Z,7.28
2023-04-15T05:56:00.037Z,7.35
2023-04-15T05:58:27.937Z,7.44
2023-04-15T06:00:55.788Z,7.54
2023-04-15T06:03:25.524Z,7.66
2023-04-15T06:05:53.402Z,7.79
2023-04-15T06:08:21.503Z,7.93
2023-04-15T06:10:49.330Z,7.99
2023-04-15T06:13:17.207Z,8.02
2023-04-15T06:15:44.998Z,7.94
2023-04-15T06:18:13.020Z,8.10
2023-04-15T06:20:42.179Z,8.21
2023-04-15T06:23:09.913Z,8.25
2023-04-15T06:25:37.695Z,8.31
2023-04-15T06:28:05.988Z,8.34
2023-04-15T06:30:33.773Z,8.44
2023-04-15T06:33:03.341Z,8.48
2023-04-15T06:35:31.141Z,8.41
2023-04-15T06:38:00.264Z,8.48
2023-04-15T06:40:28.230Z,8.48
2023-04-15T06:42:56.454Z,8.38
2023-04-15T06:45:24.244Z,8.42
2023-04-15T06:47:52.034Z,8.41
2023-04-15T06:50:19.837Z,8.44
2023-04-15T06:52:47.643Z,8.46
2023-04-15T06:55:16.784Z,8.50
2023-04-15T06:57:44.482Z,8.48
2023-04-15T07:00:13.557Z,8.34
2023-04-15T07:02:41.562Z,8.35
2023-04-15T07:05:09.997Z,8.30
2023-04-15T07:07:38.512Z,8.24
2023-04-15T07:10:07.415Z,8.17
2023-04-15T07:12:36.849Z,8.14
2023-04-15T07:15:05.473Z,8.11
2023-04-15T07:17:33.252Z,8.18
2023-04-15T07:20:01.022Z,8.14
2023-04-15T07:22:28.734Z,8.18
2023-04-15T07:24:56.660Z,8.27
2023-04-15T07:27:24.368Z,8.34
2023-04-15T07:29:53.533Z,8.34
2023-04-15T07:32:21.346Z,8.37
2023-04-15T07:34:49.080Z,8.38
2023-04-15T07:37:17.494Z,8.45
2023-04-15T07:39:45.209Z,8.51
2023-04-15T07:42:13.068Z,8.53
2023-04-15T07:44:41.123Z,8.55
2023-04-15T07:47:10.698Z,8.59
2023-04-15T07:49:38.546Z,8.47
2023-04-15T07:52:06.634Z,8.35
2023-04-15T07:54:34.358Z,8.45
2023-04-15T07:57:03.098Z,8.55
2023-04-15T07:59:33.355Z,8.68
2023-04-15T08:02:01.324Z,8.66
2023-04-15T08:04:31.204Z,8.64
2023-04-15T08:06:59.106Z,8.72
2023-04-15T08:09:27.182Z,8.70
2023-04-15T08:11:55.140Z,8.60
2023-04-15T08:14:22.984Z,8.68
2023-04-15T08:16:50.818Z,8.61
2023-04-15T08:19:18.601Z,8.54
2023-04-15T08:21:47.878Z,8.57
2023-04-15T08:24:15.814Z,8.40
2023-04-15T08:26:43.583Z,8.34
2023-04-15T08:29:11.353Z,8.48
2023-04-15T08:31:39.111Z,8.42
2023-04-15T08:34:07.005Z,8.56
2023-04-15T08:36:34.769Z,8.68
2023-04-15T08:39:04.970Z,8.72
2023-04-15T08:41:40.841Z,8.68
2023-04-15T08:44:08.963Z,8.76
2023-04-15T08:46:36.984Z,8.82
2023-04-15T08:49:06.045Z,8.87
2023-04-15T08:51:34.066Z,8.99
2023-04-15T08:54:03.568Z,9.00
2023-04-15T08:56:33.636Z,9.22
2023-04-15T08:59:01.949Z,9.26
2023-04-15T09:01:30.075Z,9.30
2023-04-15T09:04:00.080Z,9.46
2023-04-15T09:06:28.118Z,9.46
2023-04-15T09:08:55.870Z,9.41
2023-04-15T09:11:25.012Z,9.52
2023-04-15T09:13:52.762Z,9.55
2023-04-15T09:16:20.720Z,9.53
2023-04-15T09:18:48.536Z,9.72
2023-04-15T09:21:18.098Z,9.82
2023-04-15T09:23:56.691Z,9.86
2023-04-15T09:26:34.608Z,9.83
2023-04-15T09:29:07.455Z,9.86
2023-04-15T09:31:35.520Z,9.77
2023-04-15T09:34:03.947Z,9.66
2023-04-15T09:36:42.608Z,9.60
2023-04-15T09:39:10.464Z,9.60
2023-04-15T09:41:40.338Z,9.69
2023-04-15T09:44:08.341Z,9.53
2023-04-15T09:46:43.321Z,9.56
2023-04-15T09:49:12.319Z,9.57
2023-04-15T09:51:40.175Z,9.58
2023-04-15T09:54:07.922Z,9.52
2023-04-15T09:56:37.837Z,9.50
2023-04-15T09:59:07.595Z,9.34
2023-04-15T10:01:36.143Z,9.30
2023-04-15T10:04:05.979Z,9.14
2023-04-15T10:06:35.513Z,9.12
2023-04-15T10:09:03.519Z,9.20
2023-04-15T10:11:32.823Z,9.14
2023-04-15T10:14:01.954Z,8.98
2023-04-15T10:16:33.895Z,9.02
2023-04-15T10:19:04.481Z,9.08
2023-04-15T10:21:32.308Z,9.11
2023-04-15T10:24:01.843Z,9.03
2023-04-15T10:26:29.969Z,9.12
2023-04-15T10:28:59.944Z,9.15
2023-04-15T10:31:28.093Z,9.23
2023-04-15T10:33:58.338Z,9.31
2023-04-15T10:36:26.678Z,9.28
2023-04-15T10:38:54.453Z,9.28
2023-04-15T10:41:24.488Z,9.30
2023-04-15T10:43:53.804Z,9.20
2023-04-15T10:46:26.807Z,9.05
2023-04-15T10:48:55.227Z,9.03
2023-04-15T10:51:32.090Z,9.02
2023-04-15T10:54:00.927Z,9.06
2023-04-15T10:56:30.212Z,9.04
2023-04-15T10:59:00.788Z,9.03
2023-04-15T11:01:53.600Z,9.06
2023-04-15T11:04:52.795Z,8.97
2023-04-15T11:07:39.379Z,8.95
2023-04-15T11:10:52.810Z,9.04
2023-04-15T11:13:28.238Z,9.02
2023-04-15T11:16:01.625Z,9.05
2023-04-15T11:18:33.951Z,9.04
2023-04-15T11:21:04.555Z,9.07
2023-04-15T11:23:35.782Z,9.09
2023-04-15T11:26:08.872Z,9.05
2023-04-15T11:28:38.776Z,8.99
2023-04-15T11:31:11.255Z,8.98
2023-04-15T11:33:40.473Z,8.85
2023-04-15T11:36:09.394Z,8.86
2023-04-15T11:38:38.903Z,8.90
2023-04-15T11:41:06.781Z,8.86
2023-04-15T11:43:35.529Z,8.91
2023-04-15T11:46:04.562Z,8.87
2023-04-15T11:48:34.542Z,8.88
2023-04-15T11:51:03.564Z,8.79
2023-04-15T11:53:43.537Z,8.90
2023-04-15T11:56:12.678Z,8.92
2023-04-15T11:58:40.609Z,9.00
2023-04-15T12:01:08.486Z,9.05
2023-04-15T12:03:41.021Z,8.99
2023-04-15T12:06:14.162Z,9.07
2023-04-15T12:09:00.756Z,9.10
2023-04-15T12:11:37.530Z,9.03
2023-04-15T12:14:09.424Z,9.08
2023-04-15T12:16:48.008Z,9.10
2023-04-15T12:19:19.160Z,9.12
2023-04-15T12:21:49.090Z,9.07
2023-04-15T12:24:22.171Z,9.10
2023-04-15T12:26:52.171Z,9.07
2023-04-15T12:29:21.090Z,9.02
2023-04-15T12:31:53.174Z,9.02
2023-04-15T12:34:29.402Z,9.07
2023-04-15T12:36:58.838Z,9.10
2023-04-15T12:39:30.613Z,9.09
2023-04-15T12:41:58.833Z,9.10
2023-04-15T12:44:27.890Z,9.00
2023-04-15T12:46:56.559Z,9.02
2023-04-15T12:49:25.453Z,9.00
2023-04-15T12:51:55.022Z,9.03
2023-04-15T12:54:22.805Z,9.05
2023-04-15T12:56:52.515Z,9.04
2023-04-15T12:59:20.389Z,9.05
2023-04-15T13:01:49.270Z,9.04
2023-04-15T13:04:17.902Z,9.02
2023-04-15T13:06:45.953Z,8.99
2023-04-15T13:09:13.884Z,9.05
2023-04-15T13:11:41.948Z,9.06
2023-04-15T13:14:13.045Z,9.06
2023-04-15T13:16:41.490Z,9.06
2023-04-15T13:19:09.410Z,9.07
2023-04-15T13:21:37.250Z,8.95
2023-04-15T13:24:07.209Z,8.97
2023-04-15T13:26:35.987Z,9.07
2023-04-15T13:29:04.977Z,8.95
2023-04-15T13:31:34.220Z,8.95
2023-04-15T13:34:02.002Z,9.00
2023-04-15T13:36:29.860Z,8.89
2023-04-15T13:38:58.416Z,8.95
2023-04-15T13:41:26.254Z,9.00
2023-04-15T13:43:53.993Z,8.95
2023-04-15T13:46:21.997Z,9.04
2023-04-15T13:48:51.464Z,9.02
2023-04-15T13:51:19.176Z,8.97
2023-04-15T13:53:46.940Z,9.02
2023-04-15T13:56:14.687Z,8.90
2023-04-15T13:58:42.522Z,8.87
2023-04-15T14:01:10.375Z,8.96
2023-04-15T14:03:38.441Z,8.93
2023-04-15T14:06:08.027Z,9.00
2023-04-15T14:08:35.985Z,9.09
2023-04-15T14:11:03.849Z,9.08
2023-04-15T14:13:31.876Z,9.07
2023-04-15T14:15:59.606Z,9.08
2023-04-15T14:18:27.500Z,9.07
2023-04-15T14:20:55.616Z,9.07
2023-04-15T14:23:24.893Z,8.98
2023-04-15T14:25:52.760Z,9.12
2023-04-15T14:28:20.590Z,9.20
2023-04-15T14:30:48.366Z,9.22
2023-04-15T14:33:16.306Z,9.20
2023-04-15T14:35:44.337Z,9.12
2023-04-15T14:38:12.258Z,9.13
2023-04-15T14:40:42.733Z,9.03
2023-04-15T14:43:10.676Z,9.03
2023-04-15T14:45:41.881Z,9.06
2023-04-15T14:48:12.818Z,9.04
2023-04-15T14:50:41.356Z,9.13
2023-04-15T14:53:09.213Z,9.18
2023-04-15T14:55:36.965Z,9.19
2023-04-15T14:58:08.098Z,9.21
2023-04-15T15:00:39.212Z,9.23
2023-04-15T15:03:12.490Z,9.28
2023-04-15T15:05:40.781Z,9.34
2023-04-15T15:08:09.115Z,9.31
2023-04-15T15:10:49.470Z,9.32
2023-04-15T15:13:19.982Z,9.31
2023-04-15T15:15:49.408Z,9.39
2023-04-15T15:18:19.319Z,9.41
2023-04-15T15:20:47.506Z,9.40
2023-04-15T15:23:15.352Z,9.31
2023-04-15T15:25:43.193Z,9.38
2023-04-15T15:28:11.341Z,9.35
2023-04-15T15:30:40.660Z,9.39
2023-04-15T15:33:09.397Z,9.44
2023-04-15T15:35:37.252Z,9.43
2023-04-15T15:38:05.433Z,9.44
2023-04-15T15:40:33.232Z,9.46
2023-04-15T15:43:01.041Z,9.52
2023-04-15T15:45:28.923Z,9.49
2023-04-15T15:47:58.774Z,9.51
2023-04-15T15:50:26.794Z,9.56
2023-04-15T15:52:55.151Z,9.61
2023-04-15T15:55:23.395Z,9.60
2023-04-15T15:57:51.803Z,9.59
2023-04-15T16:00:19.678Z,9.55
2023-04-15T16:05:19.854Z,9.59
2023-04-15T16:07:47.587Z,9.58
2023-04-15T16:10:16.068Z,9.61
2023-04-15T16:12:43.947Z,9.52
2023-04-15T16:15:13.359Z,9.53
2023-04-15T16:17:41.266Z,9.56
2023-04-15T16:20:09.969Z,9.56
2023-04-15T16:22:39.099Z,9.50
2023-04-15T16:25:07.721Z,9.46
2023-04-15T16:27:43.442Z,9.48
2023-04-15T16:30:18.483Z,9.44
2023-04-15T16:32:46.802Z,9.50
2023-04-15T16:35:16.241Z,9.58
2023-04-15T16:37:45.325Z,9.63
2023-04-15T16:40:13.622Z,9.67
2023-04-15T16:42:43.405Z,9.60
2023-04-15T16:45:12.205Z,9.65
2023-04-15T16:47:40.457Z,9.67
2023-04-15T16:50:09.129Z,9.73
2023-04-15T16:52:37.473Z,9.65
2023-04-15T16:55:07.394Z,9.62
2023-04-15T16:57:50.804Z,9.61
2023-04-15T17:00:23.071Z,9.56
2023-04-15T17:02:51.092Z,9.59
2023-04-15T17:05:19.208Z,9.62
2023-04-15T17:07:46.914Z,9.59
2023-04-15T17:10:17.348Z,9.61
2023-04-15T17:12:45.322Z,9.57
2023-04-15T17:15:13.142Z,9.60
2023-04-15T17:17:41.109Z,9.59
2023-04-15T17:20:09.378Z,9.64
2023-04-15T17:22:37.298Z,9.63
2023-04-15T17:25:05.883Z,9.63
2023-04-15T17:27:35.002Z,9.62
2023-04-15T17:30:02.956Z,9.63
2023-04-15T17:32:34.199Z,9.58
2023-04-15T17:35:02.786Z,9.60
2023-04-15T17:37:30.674Z,9.63
2023-04-15T17:39:58.436Z,9.63
2023-04-15T17:42:26.361Z,9.62
2023-04-15T17:44:55.451Z,9.61
2023-04-15T17:47:23.252Z,9.65
2023-04-15T17:49:51.147Z,9.62
2023-04-15T17:52:18.876Z,9.64
2023-04-15T17:54:46.891Z,9.56
2023-04-15T17:57:14.746Z,9.54
2023-04-15T17:59:44.090Z,9.56
2023-04-15T18:02:13.652Z,9.53
2023-04-15T18:04:41.804Z,9.46
2023-04-15T18:07:09.924Z,9.49
2023-04-15T18:09:37.688Z,9.45
2023-04-15T18:12:07.589Z,9.40
2023-04-15T18:14:35.535Z,9.42
2023-04-15T18:17:03.603Z,9.41
2023-04-15T18:19:32.970Z,9.40
2023-04-15T18:22:00.963Z,9.40
2023-04-15T18:24:28.809Z,9.38
2023-04-15T18:26:57.109Z,9.35
2023-04-15T18:29:25.258Z,9.32
2023-04-15T18:31:53.268Z,9.38
2023-04-15T18:34:21.177Z,9.38
2023-04-15T18:36:50.351Z,9.34
2023-04-15T18:39:18.141Z,9.34
2023-04-15T18:41:45.909Z,9.38
2023-04-15T18:44:13.626Z,9.39
2023-04-15T18:46:41.490Z,9.38
2023-04-15T18:49:09.210Z,9.38
2023-04-15T18:51:37.126Z,9.39
2023-04-15T18:54:06.506Z,9.41
2023-04-15T18:56:34.281Z,9.42
2023-04-15T18:59:09.388Z,9.38
2023-04-15T19:01:49.830Z,9.34
2023-04-15T19:04:17.650Z,9.32
2023-04-15T19:06:45.372Z,9.32
2023-04-15T19:09:15.080Z,9.29
2023-04-15T19:11:43.617Z,9.24
2023-04-15T19:14:12.006Z,9.22
2023-04-15T19:16:39.865Z,9.20
2023-04-15T19:19:07.800Z,9.17
2023-04-15T19:21:35.849Z,9.19
2023-04-15T19:24:03.675Z,9.18
2023-04-15T19:26:32.833Z,9.16
2023-04-15T19:29:00.766Z,9.14
2023-04-15T19:31:28.567Z,9.15
2023-04-15T19:33:56.778Z,9.16
2023-04-15T19:36:24.533Z,9.15
2023-04-15T19:38:52.335Z,9.17
2023-04-15T19:41:20.117Z,9.18
2023-04-15T19:43:49.196Z,9.16
2023-04-15T19:46:16.998Z,9.16
2023-04-15T19:48:45.006Z,9.19
2023-04-15T19:51:12.960Z,9.19
2023-04-15T19:53:41.317Z,9.20
2023-04-15T19:56:09.068Z,9.18
2023-04-15T19:58:37.378Z,9.17
2023-04-15T20:01:06.596Z,9.17
2023-04-15T20:03:34.526Z,9.20
2023-04-15T20:06:02.354Z,9.16
2023-04-15T20:08:30.068Z,9.16
2023-04-15T20:10:58.182Z,9.13
2023-04-15T20:13:25.989Z,9.13
2023-04-15T20:15:53.766Z,9.12
2023-04-15T20:18:22.906Z,9.14
2023-04-15T20:20:50.720Z,9.15
2023-04-15T20:23:18.626Z,9.15
2023-04-15T20:25:46.356Z,9.15
2023-04-15T20:28:14.130Z,9.11
2023-04-15T20:30:41.927Z,9.13
2023-04-15T20:33:09.664Z,9.17
2023-04-15T20:35:38.949Z,9.15
2023-04-15T20:38:06.687Z,9.16
2023-04-15T20:40:34.618Z,9.16
2023-04-15T20:43:02.392Z,9.16
2023-04-15T20:45:30.092Z,9.21
2023-04-15T20:47:58.019Z,9.24
2023-04-15T20:50:25.781Z,9.26
2023-04-15T20:52:54.877Z,9.28
2023-04-15T20:55:22.611Z,9.29
2023-04-15T20:57:50.427Z,9.34
2023-04-15T21:00:18.256Z,9.37
2023-04-15T21:02:46.157Z,9.38
2023-04-15T21:05:13.918Z,9.37
2023-04-15T21:07:42.068Z,9.40
2023-04-15T21:10:11.995Z,9.41
2023-04-15T21:12:41.032Z,9.39
2023-04-15T21:15:09.869Z,9.40
2023-04-15T21:17:37.748Z,9.42
2023-04-15T21:20:06.433Z,9.41
2023-04-15T21:22:34.264Z,9.42
2023-04-15T21:25:02.081Z,9.41
2023-04-15T21:27:31.175Z,9.45
2023-04-15T21:29:58.900Z,9.44
2023-04-15T21:32:26.669Z,9.42
2023-04-15T21:34:54.447Z,9.44
2023-04-15T21:37:22.188Z,9.44
2023-04-15T21:39:49.911Z,9.46
2023-04-15T21:42:17.787Z,9.49
2023-04-15T21:44:46.922Z,9.49
2023-04-15T21:47:14.757Z,9.50
2023-04-15T21:49:42.714Z,9.48
2023-04-15T21:52:10.974Z,9.48
2023-04-15T21:54:38.678Z,9.52
2023-04-15T21:57:06.399Z,9.52
2023-04-15T21:59:34.116Z,9.53
2023-04-15T22:02:03.340Z,9.53
2023-04-15T22:04:31.260Z,9.55
2023-04-15T22:07:01.622Z,9.54
2023-04-15T22:09:29.427Z,9.57
2023-04-15T22:11:57.589Z,9.56
2023-04-15T22:14:25.346Z,9.55
2023-04-15T22:16:53.056Z,9.55
2023-04-15T22:19:22.141Z,9.56
2023-04-15T22:21:50.838Z,9.48
2023-04-15T22:24:34.048Z,9.50
2023-04-15T22:27:06.285Z,9.52
2023-04-15T22:29:34.122Z,9.48
2023-04-15T22:32:01.952Z,9.47
2023-04-15T22:34:31.065Z,9.43
2023-04-15T22:36:58.798Z,9.41
2023-04-15T22:39:26.596Z,9.40
2023-04-15T22:41:54.336Z,9.38
2023-04-15T22:44:22.040Z,9.41
2023-04-15T22:46:51.606Z,9.44
2023-04-15T22:49:19.402Z,9.44
2023-04-15T22:51:48.562Z,9.44
2023-04-15T22:54:16.268Z,9.48
2023-04-15T22:56:44.005Z,9.50
2023-04-15T22:59:11.883Z,9.49
2023-04-15T23:01:39.722Z,9.53
2023-04-15T23:04:22.872Z,9.56
2023-04-15T23:06:52.965Z,9.53
2023-04-15T23:09:20.956Z,9.56
2023-04-15T23:11:48.852Z,9.55
2023-04-15T23:14:16.676Z,9.56
2023-04-15T23:16:45.490Z,9.55
2023-04-15T23:19:13.228Z,9.51
2023-04-15T23:21:40.926Z,9.46
2023-04-15T23:24:10.041Z,9.47
2023-04-15T23:26:37.893Z,9.50
2023-04-15T23:29:05.783Z,9.49
2023-04-15T23:31:33.555Z,9.47
2023-04-15T23:34:01.356Z,9.47
2023-04-15T23:36:29.152Z,9.48
2023-04-15T23:38:56.872Z,9.49
2023-04-15T23:41:26.057Z,9.51
2023-04-15T23:43:53.795Z,9.51
2023-04-15T23:46:21.527Z,9.54
2023-04-15T23:48:49.696Z,9.52
2023-04-15T23:51:17.940Z,9.53
2023-04-15T23:53:45.740Z,9.49
2023-04-15T23:56:13.460Z,9.52
2023-04-15T23:58:42.618Z,9.51
